Fulton, SD

11:52 PM CDT on September 16, 2019 (GMT -0500)
Westview Drive | | Change Station
Active Advisory: Flood Warning

Elev 1306 ft 43.73 °N, 98.00 °W | Updated 41 seconds ago

Partly Cloudy
Partly Cloudy
77.4 °F
Feels Like 79 °F
N
6.5
Wind Variable Wind from ESE
Gusts 17.0 mph

Today
High -- | Low -- °F
--% Chance of Precip.
Yesterday
High -- | Low -- °F
Precip. -- in
Pressure 29.80 in
Visibility 10.0 miles
Clouds Mostly Cloudy 12000 ft
Heat Index 79 °F
Dew Point 69 °F
Humidity 76%
Rainfall 0.00 in
Snow Depth Not available.
7:11 AM 7:40 PM
Waning Gibbous, 92% visible
METAR KMHE 170253Z AUTO 15014G25KT 10SM BKN120 27/20 A2982 RMK AO2 SLP089 T02670200 55000
Pressure 29.80 in
Visibility 10.0 miles
Clouds Mostly Cloudy 12000 ft
Heat Index 79 °F
Dew Point 69 °F
Humidity 76%
Rainfall 0.00 in
Snow Depth Not available.
7:11 AM 7:40 PM
Waning Gibbous, 92% visible
METAR KMHE 170253Z AUTO 15014G25KT 10SM BKN120 27/20 A2982 RMK AO2 SLP089 T02670200 55000

Get Your Daily Forecast Email!

Thanks for signing up!

Be on the lookout for a verification email in your inbox.

You'll start receiving severe weather alerts in your inbox..

×

10-Day Weather Forecast

Almanac

Astronomy

Sep. 16, 2019 Rise Set
Actual Time
Civil Twilight
Nautical Twilight
Astronomical Twilight
Moon
Length of Visible Light
Length of Day
Tomorrow will be .
, % of the Moon is Illuminated

Today's Extremes

State Highs State Lows

Community

WunderPhotos

Category 6

Welcome to Category 6. This is the collective home for Weather Underground's featured writeups by Dr. Jeff Masters (right), Bob Henson (left), Chris Burt, and other regular contributors.

Nearby

Air Quality

  Air Quality AQ Index Pollutant
Not available.

Snow Depth

Station Depth Elevation

Earthquake Activity

City Distance Mag. Time & Date
Minimum magnitude displayed is 2.5.

Coastal Water Temperatures

Place Temperature

Stations

Nearby Weather Stations

Station Location Temp. Windchill Dew Point Humidity Wind Precip. Elev Updated Type
                   

Watches & Warnings

Flood Warning
Issued: 10:37 AM CDT Sep. 16, 2019 – National Weather Service

The Flood Warning continues for
the James River at Mitchell.
* Until further notice.
* At 09am Monday the stage was 23.87 feet.
* Major flooding is occurring and major flooding is forecast.
* Flood stage is 17.00 feet.
* Forecast... the river will continue to slowly fall.
* At stages near 23.5 feet... 1st Avenue by The Golf Course is
flooded.


Lat... Lon 4393 9812 4393 9798 4370 9789 4340 9763
          4338 9777 4351 9797